sensor_id;sensor_type;location;lat;lon;timestamp;P1;durP1;ratioP1;P2;durP2;ratioP2
48205;SDS011;33995;48.202;16.260;2022-10-26T00:01:47;7.13;;;4.27;;
48205;SDS011;33995;48.202;16.260;2022-10-26T00:04:15;7.03;;;4.00;;
48205;SDS011;33995;48.202;16.260;2022-10-26T00:06:44;4.97;;;4.10;;
48205;SDS011;33995;48.202;16.260;2022-10-26T00:09:12;6.60;;;4.10;;
48205;SDS011;33995;48.202;16.260;2022-10-26T00:11:41;4.40;;;3.77;;
48205;SDS011;33995;48.202;16.260;2022-10-26T00:14:11;5.17;;;3.73;;
48205;SDS011;33995;48.202;16.260;2022-10-26T00:16:39;4.47;;;3.63;;
48205;SDS011;33995;48.202;16.260;2022-10-26T00:19:06;7.93;;;3.50;;
48205;SDS011;33995;48.202;16.260;2022-10-26T00:21:35;6.63;;;3.50;;
48205;SDS011;33995;48.202;16.260;2022-10-26T00:24:02;4.47;;;3.30;;
48205;SDS011;33995;48.202;16.260;2022-10-26T00:26:34;5.07;;;3.47;;
48205;SDS011;33995;48.202;16.260;2022-10-26T00:29:03;5.63;;;3.60;;
48205;SDS011;33995;48.202;16.260;2022-10-26T00:31:31;4.43;;;3.20;;
48205;SDS011;33995;48.202;16.260;2022-10-26T00:34:00;3.87;;;3.43;;
48205;SDS011;33995;48.202;16.260;2022-10-26T00:36:28;4.77;;;3.57;;
48205;SDS011;33995;48.202;16.260;2022-10-26T00:38:57;3.70;;;3.40;;
48205;SDS011;33995;48.202;16.260;2022-10-26T00:41:29;7.17;;;3.37;;
48205;SDS011;33995;48.202;16.260;2022-10-26T00:44:37;4.50;;;3.30;;
48205;SDS011;33995;48.202;16.260;2022-10-26T00:47:17;4.13;;;3.50;;
48205;SDS011;33995;48.202;16.260;2022-10-26T00:49:56;8.03;;;3.87;;
48205;SDS011;33995;48.202;16.260;2022-10-26T00:52:27;5.17;;;3.50;;
48205;SDS011;33995;48.202;16.260;2022-10-26T00:54:57;6.40;;;3.87;;
48205;SDS011;33995;48.202;16.260;2022-10-26T00:57:25;4.03;;;3.20;;
48205;SDS011;33995;48.202;16.260;2022-10-26T00:59:53;5.60;;;3.67;;
48205;SDS011;33995;48.202;16.260;2022-10-26T01:02:22;5.97;;;3.67;;
48205;SDS011;33995;48.202;16.260;2022-10-26T01:04:50;4.43;;;3.57;;
48205;SDS011;33995;48.202;16.260;2022-10-26T01:07:19;4.00;;;3.60;;
48205;SDS011;33995;48.202;16.260;2022-10-26T01:09:52;5.47;;;3.63;;
48205;SDS011;33995;48.202;16.260;2022-10-26T01:12:21;5.47;;;3.37;;
48205;SDS011;33995;48.202;16.260;2022-10-26T01:14:48;5.60;;;3.70;;
48205;SDS011;33995;48.202;16.260;2022-10-26T01:22:51;4.90;;;3.07;;
48205;SDS011;33995;48.202;16.260;2022-10-26T01:25:33;4.50;;;3.60;;
48205;SDS011;33995;48.202;16.260;2022-10-26T01:29:00;3.87;;;3.20;;
48205;SDS011;33995;48.202;16.260;2022-10-26T01:31:01;4.03;;;3.40;;
48205;SDS011;33995;48.202;16.260;2022-10-26T01:33:38;5.03;;;3.00;;
48205;SDS011;33995;48.202;16.260;2022-10-26T01:36:15;4.93;;;3.50;;
48205;SDS011;33995;48.202;16.260;2022-10-26T01:39:04;4.40;;;3.30;;
48205;SDS011;33995;48.202;16.260;2022-10-26T01:41:46;5.07;;;3.10;;
48205;SDS011;33995;48.202;16.260;2022-10-26T01:44:17;5.70;;;3.20;;
48205;SDS011;33995;48.202;16.260;2022-10-26T01:46:50;3.57;;;3.27;;
48205;SDS011;33995;48.202;16.260;2022-10-26T01:49:22;4.43;;;3.50;;
48205;SDS011;33995;48.202;16.260;2022-10-26T01:51:54;5.33;;;3.60;;
48205;SDS011;33995;48.202;16.260;2022-10-26T01:54:22;4.60;;;3.70;;
48205;SDS011;33995;48.202;16.260;2022-10-26T01:56:50;4.33;;;3.40;;
48205;SDS011;33995;48.202;16.260;2022-10-26T02:20:40;4.47;;;3.10;;
48205;SDS011;33995;48.202;16.260;2022-10-26T02:23:12;4.73;;;3.30;;
48205;SDS011;33995;48.202;16.260;2022-10-26T02:25:46;5.00;;;3.20;;
48205;SDS011;33995;48.202;16.260;2022-10-26T02:28:17;4.63;;;3.13;;
48205;SDS011;33995;48.202;16.260;2022-10-26T02:30:48;5.33;;;3.20;;
48205;SDS011;33995;48.202;16.260;2022-10-26T02:33:19;4.90;;;3.37;;
48205;SDS011;33995;48.202;16.260;2022-10-26T02:35:49;5.57;;;2.80;;
48205;SDS011;33995;48.202;16.260;2022-10-26T02:38:19;5.17;;;3.10;;
48205;SDS011;33995;48.202;16.260;2022-10-26T02:40:49;6.07;;;2.90;;
48205;SDS011;33995;48.202;16.260;2022-10-26T02:43:18;5.03;;;3.07;;
48205;SDS011;33995;48.202;16.260;2022-10-26T02:45:52;4.57;;;2.77;;
48205;SDS011;33995;48.202;16.260;2022-10-26T02:48:25;4.83;;;2.90;;
48205;SDS011;33995;48.202;16.260;2022-10-26T02:50:54;4.17;;;2.97;;
48205;SDS011;33995;48.202;16.260;2022-10-26T02:53:30;5.63;;;3.00;;
48205;SDS011;33995;48.202;16.260;2022-10-26T02:56:10;4.23;;;2.60;;
48205;SDS011;33995;48.202;16.260;2022-10-26T02:58:44;4.10;;;2.80;;
48205;SDS011;33995;48.202;16.260;2022-10-26T03:01:15;4.33;;;2.70;;
48205;SDS011;33995;48.202;16.260;2022-10-26T03:03:43;5.23;;;3.00;;
48205;SDS011;33995;48.202;16.260;2022-10-26T03:06:11;3.10;;;2.80;;
48205;SDS011;33995;48.202;16.260;2022-10-26T03:08:47;3.27;;;2.97;;
48205;SDS011;33995;48.202;16.260;2022-10-26T03:11:15;4.87;;;3.13;;
48205;SDS011;33995;48.202;16.260;2022-10-26T03:13:43;4.53;;;2.93;;
48205;SDS011;33995;48.202;16.260;2022-10-26T03:16:10;4.60;;;3.23;;
48205;SDS011;33995;48.202;16.260;2022-10-26T03:18:39;4.13;;;2.90;;
48205;SDS011;33995;48.202;16.260;2022-10-26T03:21:06;4.77;;;2.80;;
48205;SDS011;33995;48.202;16.260;2022-10-26T03:23:33;3.70;;;2.87;;
48205;SDS011;33995;48.202;16.260;2022-10-26T03:26:01;5.90;;;3.50;;
48205;SDS011;33995;48.202;16.260;2022-10-26T03:28:29;3.83;;;3.00;;
48205;SDS011;33995;48.202;16.260;2022-10-26T03:30:57;4.73;;;3.00;;
48205;SDS011;33995;48.202;16.260;2022-10-26T03:33:24;3.47;;;3.07;;
48205;SDS011;33995;48.202;16.260;2022-10-26T03:35:54;3.73;;;2.70;;
48205;SDS011;33995;48.202;16.260;2022-10-26T03:38:25;4.80;;;3.10;;
48205;SDS011;33995;48.202;16.260;2022-10-26T03:40:52;4.27;;;3.27;;
48205;SDS011;33995;48.202;16.260;2022-10-26T03:43:20;4.40;;;2.90;;
48205;SDS011;33995;48.202;16.260;2022-10-26T03:45:47;3.93;;;2.90;;
48205;SDS011;33995;48.202;16.260;2022-10-26T03:48:15;3.13;;;2.80;;
48205;SDS011;33995;48.202;16.260;2022-10-26T03:50:42;4.60;;;2.90;;
48205;SDS011;33995;48.202;16.260;2022-10-26T03:53:10;4.37;;;2.70;;
48205;SDS011;33995;48.202;16.260;2022-10-26T03:55:37;4.87;;;3.00;;
48205;SDS011;33995;48.202;16.260;2022-10-26T03:58:05;4.67;;;2.97;;
48205;SDS011;33995;48.202;16.260;2022-10-26T04:00:32;4.63;;;2.90;;
48205;SDS011;33995;48.202;16.260;2022-10-26T04:02:59;4.73;;;3.17;;
48205;SDS011;33995;48.202;16.260;2022-10-26T04:05:28;4.60;;;3.00;;
48205;SDS011;33995;48.202;16.260;2022-10-26T04:07:56;6.53;;;3.10;;
48205;SDS011;33995;48.202;16.260;2022-10-26T04:10:25;5.27;;;2.70;;
48205;SDS011;33995;48.202;16.260;2022-10-26T04:12:53;4.23;;;2.80;;
48205;SDS011;33995;48.202;16.260;2022-10-26T04:15:21;6.40;;;2.93;;
48205;SDS011;33995;48.202;16.260;2022-10-26T04:17:56;6.30;;;3.13;;
48205;SDS011;33995;48.202;16.260;2022-10-26T04:20:24;5.30;;;3.40;;
48205;SDS011;33995;48.202;16.260;2022-10-26T04:22:59;4.93;;;3.00;;
48205;SDS011;33995;48.202;16.260;2022-10-26T04:25:29;4.07;;;3.20;;
48205;SDS011;33995;48.202;16.260;2022-10-26T04:28:00;3.70;;;3.20;;
48205;SDS011;33995;48.202;16.260;2022-10-26T04:30:29;4.60;;;3.23;;
48205;SDS011;33995;48.202;16.260;2022-10-26T04:32:56;5.57;;;3.53;;
48205;SDS011;33995;48.202;16.260;2022-10-26T04:35:24;3.57;;;3.20;;
48205;SDS011;33995;48.202;16.260;2022-10-26T04:37:58;4.83;;;3.40;;
48205;SDS011;33995;48.202;16.260;2022-10-26T04:40:27;5.17;;;3.50;;
48205;SDS011;33995;48.202;16.260;2022-10-26T04:42:55;6.07;;;3.33;;
48205;SDS011;33995;48.202;16.260;2022-10-26T04:45:23;5.93;;;3.33;;
48205;SDS011;33995;48.202;16.260;2022-10-26T04:47:57;4.03;;;3.00;;
48205;SDS011;33995;48.202;16.260;2022-10-26T04:50:32;3.40;;;3.10;;
48205;SDS011;33995;48.202;16.260;2022-10-26T04:53:02;3.87;;;2.90;;
48205;SDS011;33995;48.202;16.260;2022-10-26T04:55:31;3.30;;;2.80;;
48205;SDS011;33995;48.202;16.260;2022-10-26T04:57:58;3.83;;;2.93;;
48205;SDS011;33995;48.202;16.260;2022-10-26T05:00:28;8.10;;;3.50;;
48205;SDS011;33995;48.202;16.260;2022-10-26T05:03:00;3.47;;;3.00;;
48205;SDS011;33995;48.202;16.260;2022-10-26T05:05:29;5.17;;;3.30;;
48205;SDS011;33995;48.202;16.260;2022-10-26T05:07:57;6.20;;;3.33;;
48205;SDS011;33995;48.202;16.260;2022-10-26T05:10:25;3.67;;;3.17;;
48205;SDS011;33995;48.202;16.260;2022-10-26T05:12:53;5.07;;;3.13;;
48205;SDS011;33995;48.202;16.260;2022-10-26T05:15:22;4.77;;;3.17;;
48205;SDS011;33995;48.202;16.260;2022-10-26T05:17:56;3.77;;;2.80;;
48205;SDS011;33995;48.202;16.260;2022-10-26T05:20:26;3.37;;;3.07;;
48205;SDS011;33995;48.202;16.260;2022-10-26T05:22:57;3.50;;;2.80;;
48205;SDS011;33995;48.202;16.260;2022-10-26T05:25:27;4.93;;;3.10;;
48205;SDS011;33995;48.202;16.260;2022-10-26T05:27:56;3.57;;;2.90;;
48205;SDS011;33995;48.202;16.260;2022-10-26T05:30:27;5.77;;;3.30;;
48205;SDS011;33995;48.202;16.260;2022-10-26T05:32:56;4.77;;;3.63;;
48205;SDS011;33995;48.202;16.260;2022-10-26T05:35:24;5.53;;;4.10;;
48205;SDS011;33995;48.202;16.260;2022-10-26T05:37:52;4.17;;;3.40;;
48205;SDS011;33995;48.202;16.260;2022-10-26T05:40:20;5.20;;;3.93;;
48205;SDS011;33995;48.202;16.260;2022-10-26T05:42:48;7.67;;;5.20;;
48205;SDS011;33995;48.202;16.260;2022-10-26T05:45:17;9.80;;;6.97;;
48205;SDS011;33995;48.202;16.260;2022-10-26T05:47:45;12.13;;;9.43;;
48205;SDS011;33995;48.202;16.260;2022-10-26T05:50:13;8.17;;;6.70;;
48205;SDS011;33995;48.202;16.260;2022-10-26T05:52:41;7.70;;;6.40;;
48205;SDS011;33995;48.202;16.260;2022-10-26T05:55:11;6.57;;;4.80;;
48205;SDS011;33995;48.202;16.260;2022-10-26T05:57:41;5.80;;;4.00;;
48205;SDS011;33995;48.202;16.260;2022-10-26T06:00:14;5.40;;;4.10;;
48205;SDS011;33995;48.202;16.260;2022-10-26T06:05:17;3.73;;;3.20;;
48205;SDS011;33995;48.202;16.260;2022-10-26T06:07:48;4.43;;;3.47;;
48205;SDS011;33995;48.202;16.260;2022-10-26T06:10:16;5.23;;;4.17;;
48205;SDS011;33995;48.202;16.260;2022-10-26T06:12:44;5.67;;;4.50;;
48205;SDS011;33995;48.202;16.260;2022-10-26T06:15:19;5.23;;;4.00;;
48205;SDS011;33995;48.202;16.260;2022-10-26T06:31:17;5.93;;;4.10;;
48205;SDS011;33995;48.202;16.260;2022-10-26T06:33:44;5.27;;;3.93;;
48205;SDS011;33995;48.202;16.260;2022-10-26T06:39:03;5.83;;;4.33;;
48205;SDS011;33995;48.202;16.260;2022-10-26T06:41:34;4.43;;;3.73;;
48205;SDS011;33995;48.202;16.260;2022-10-26T06:44:02;7.63;;;4.27;;
48205;SDS011;33995;48.202;16.260;2022-10-26T06:46:42;4.27;;;3.60;;
48205;SDS011;33995;48.202;16.260;2022-10-26T06:49:22;6.07;;;4.23;;
48205;SDS011;33995;48.202;16.260;2022-10-26T06:52:15;6.07;;;4.67;;
48205;SDS011;33995;48.202;16.260;2022-10-26T06:57:18;5.63;;;4.43;;
48205;SDS011;33995;48.202;16.260;2022-10-26T07:02:23;5.30;;;3.50;;
48205;SDS011;33995;48.202;16.260;2022-10-26T07:04:51;4.93;;;3.80;;
48205;SDS011;33995;48.202;16.260;2022-10-26T07:07:25;3.90;;;3.50;;
48205;SDS011;33995;48.202;16.260;2022-10-26T07:09:57;4.03;;;3.57;;
48205;SDS011;33995;48.202;16.260;2022-10-26T07:12:24;5.30;;;3.80;;
48205;SDS011;33995;48.202;16.260;2022-10-26T07:14:58;4.37;;;3.70;;
48205;SDS011;33995;48.202;16.260;2022-10-26T07:17:26;5.07;;;3.30;;
48205;SDS011;33995;48.202;16.260;2022-10-26T07:19:56;4.07;;;3.47;;
48205;SDS011;33995;48.202;16.260;2022-10-26T07:22:23;4.77;;;3.60;;
48205;SDS011;33995;48.202;16.260;2022-10-26T07:24:51;7.33;;;4.10;;
48205;SDS011;33995;48.202;16.260;2022-10-26T07:27:19;3.83;;;3.37;;
48205;SDS011;33995;48.202;16.260;2022-10-26T07:29:46;4.20;;;3.33;;
48205;SDS011;33995;48.202;16.260;2022-10-26T07:32:13;4.03;;;3.30;;
48205;SDS011;33995;48.202;16.260;2022-10-26T07:34:41;5.67;;;3.50;;
48205;SDS011;33995;48.202;16.260;2022-10-26T07:37:08;4.37;;;3.50;;
48205;SDS011;33995;48.202;16.260;2022-10-26T07:39:36;7.50;;;5.73;;
48205;SDS011;33995;48.202;16.260;2022-10-26T07:42:03;7.87;;;5.23;;
48205;SDS011;33995;48.202;16.260;2022-10-26T07:44:31;7.43;;;6.00;;
48205;SDS011;33995;48.202;16.260;2022-10-26T07:46:58;26.23;;;17.40;;
48205;SDS011;33995;48.202;16.260;2022-10-26T07:49:26;21.07;;;15.23;;
48205;SDS011;33995;48.202;16.260;2022-10-26T07:51:54;17.37;;;14.73;;
48205;SDS011;33995;48.202;16.260;2022-10-26T07:54:21;15.63;;;11.60;;
48205;SDS011;33995;48.202;16.260;2022-10-26T07:56:48;11.50;;;8.77;;
48205;SDS011;33995;48.202;16.260;2022-10-26T07:59:16;11.87;;;8.50;;
48205;SDS011;33995;48.202;16.260;2022-10-26T08:01:44;11.60;;;8.70;;
48205;SDS011;33995;48.202;16.260;2022-10-26T08:04:12;12.07;;;9.07;;
48205;SDS011;33995;48.202;16.260;2022-10-26T08:06:40;13.53;;;9.60;;
48205;SDS011;33995;48.202;16.260;2022-10-26T08:09:07;13.43;;;9.73;;
48205;SDS011;33995;48.202;16.260;2022-10-26T08:11:35;19.40;;;13.80;;
48205;SDS011;33995;48.202;16.260;2022-10-26T08:14:05;18.40;;;13.13;;
48205;SDS011;33995;48.202;16.260;2022-10-26T08:16:32;23.23;;;14.33;;
48205;SDS011;33995;48.202;16.260;2022-10-26T08:19:00;28.63;;;19.30;;
48205;SDS011;33995;48.202;16.260;2022-10-26T08:21:28;32.37;;;22.90;;
48205;SDS011;33995;48.202;16.260;2022-10-26T08:24:06;31.20;;;20.70;;
48205;SDS011;33995;48.202;16.260;2022-10-26T08:26:34;34.17;;;22.93;;
48205;SDS011;33995;48.202;16.260;2022-10-26T08:29:01;28.67;;;21.10;;
48205;SDS011;33995;48.202;16.260;2022-10-26T08:31:29;23.70;;;16.83;;
48205;SDS011;33995;48.202;16.260;2022-10-26T08:33:56;22.30;;;16.97;;
48205;SDS011;33995;48.202;16.260;2022-10-26T08:36:24;22.97;;;16.13;;
48205;SDS011;33995;48.202;16.260;2022-10-26T08:38:53;27.83;;;18.93;;
48205;SDS011;33995;48.202;16.260;2022-10-26T08:42:05;26.30;;;18.80;;
48205;SDS011;33995;48.202;16.260;2022-10-26T08:44:24;33.37;;;21.40;;
48205;SDS011;33995;48.202;16.260;2022-10-26T08:52:47;35.40;;;24.23;;
48205;SDS011;33995;48.202;16.260;2022-10-26T08:55:30;39.70;;;25.10;;
48205;SDS011;33995;48.202;16.260;2022-10-26T08:58:06;34.70;;;23.20;;
48205;SDS011;33995;48.202;16.260;2022-10-26T09:00:41;35.57;;;24.37;;
48205;SDS011;33995;48.202;16.260;2022-10-26T09:03:15;39.17;;;25.63;;
48205;SDS011;33995;48.202;16.260;2022-10-26T09:05:49;35.23;;;24.37;;
48205;SDS011;33995;48.202;16.260;2022-10-26T09:08:46;41.17;;;26.40;;
48205;SDS011;33995;48.202;16.260;2022-10-26T09:16:52;39.30;;;26.60;;
48205;SDS011;33995;48.202;16.260;2022-10-26T09:19:36;40.53;;;27.03;;
48205;SDS011;33995;48.202;16.260;2022-10-26T09:24:56;37.87;;;26.27;;
48205;SDS011;33995;48.202;16.260;2022-10-26T09:27:34;40.93;;;26.67;;
48205;SDS011;33995;48.202;16.260;2022-10-26T09:30:15;39.80;;;26.63;;
48205;SDS011;33995;48.202;16.260;2022-10-26T09:32:49;37.00;;;25.23;;
48205;SDS011;33995;48.202;16.260;2022-10-26T09:35:26;39.93;;;25.93;;
48205;SDS011;33995;48.202;16.260;2022-10-26T09:37:59;38.40;;;25.97;;
48205;SDS011;33995;48.202;16.260;2022-10-26T09:43:00;37.63;;;25.03;;
48205;SDS011;33995;48.202;16.260;2022-10-26T09:45:52;35.43;;;22.73;;
48205;SDS011;33995;48.202;16.260;2022-10-26T09:48:34;35.77;;;23.93;;
48205;SDS011;33995;48.202;16.260;2022-10-26T09:51:02;40.23;;;24.83;;
48205;SDS011;33995;48.202;16.260;2022-10-26T09:53:31;37.23;;;24.97;;
48205;SDS011;33995;48.202;16.260;2022-10-26T09:56:23;36.83;;;26.63;;
48205;SDS011;33995;48.202;16.260;2022-10-26T09:58:53;39.50;;;26.43;;
48205;SDS011;33995;48.202;16.260;2022-10-26T10:01:28;36.70;;;26.77;;
48205;SDS011;33995;48.202;16.260;2022-10-26T10:06:43;36.57;;;25.87;;
48205;SDS011;33995;48.202;16.260;2022-10-26T10:09:16;38.07;;;26.33;;
48205;SDS011;33995;48.202;16.260;2022-10-26T10:11:55;35.00;;;25.33;;
48205;SDS011;33995;48.202;16.260;2022-10-26T10:14:28;37.57;;;26.70;;
48205;SDS011;33995;48.202;16.260;2022-10-26T10:17:03;37.00;;;26.40;;
48205;SDS011;33995;48.202;16.260;2022-10-26T10:19:37;33.43;;;25.27;;
48205;SDS011;33995;48.202;16.260;2022-10-26T10:22:08;36.53;;;26.03;;
48205;SDS011;33995;48.202;16.260;2022-10-26T10:24:57;39.70;;;28.37;;
48205;SDS011;33995;48.202;16.260;2022-10-26T10:27:26;39.17;;;27.27;;
48205;SDS011;33995;48.202;16.260;2022-10-26T10:29:55;40.37;;;28.27;;
48205;SDS011;33995;48.202;16.260;2022-10-26T10:32:30;38.57;;;26.77;;
48205;SDS011;33995;48.202;16.260;2022-10-26T10:35:21;38.30;;;26.90;;
48205;SDS011;33995;48.202;16.260;2022-10-26T10:37:50;38.00;;;26.67;;
48205;SDS011;33995;48.202;16.260;2022-10-26T10:40:19;36.47;;;26.03;;
48205;SDS011;33995;48.202;16.260;2022-10-26T10:42:49;35.77;;;24.90;;
48205;SDS011;33995;48.202;16.260;2022-10-26T10:45:20;32.43;;;23.73;;
48205;SDS011;33995;48.202;16.260;2022-10-26T10:51:00;34.27;;;23.43;;
48205;SDS011;33995;48.202;16.260;2022-10-26T10:58:54;32.87;;;23.70;;
48205;SDS011;33995;48.202;16.260;2022-10-26T11:01:37;33.73;;;24.87;;
48205;SDS011;33995;48.202;16.260;2022-10-26T11:07:08;32.03;;;23.33;;
48205;SDS011;33995;48.202;16.260;2022-10-26T11:09:37;31.23;;;23.20;;
48205;SDS011;33995;48.202;16.260;2022-10-26T11:12:12;31.70;;;22.47;;
48205;SDS011;33995;48.202;16.260;2022-10-26T11:14:44;29.90;;;21.37;;
48205;SDS011;33995;48.202;16.260;2022-10-26T11:17:21;29.50;;;21.80;;
48205;SDS011;33995;48.202;16.260;2022-10-26T11:19:56;27.00;;;21.30;;
48205;SDS011;33995;48.202;16.260;2022-10-26T11:25:21;28.40;;;20.73;;
48205;SDS011;33995;48.202;16.260;2022-10-26T11:28:02;27.77;;;20.30;;
48205;SDS011;33995;48.202;16.260;2022-10-26T11:30:42;27.73;;;19.97;;
48205;SDS011;33995;48.202;16.260;2022-10-26T11:33:19;26.77;;;19.37;;
48205;SDS011;33995;48.202;16.260;2022-10-26T11:35:52;25.07;;;18.03;;
48205;SDS011;33995;48.202;16.260;2022-10-26T11:38:39;23.63;;;17.10;;
48205;SDS011;33995;48.202;16.260;2022-10-26T11:47:02;20.23;;;15.90;;
48205;SDS011;33995;48.202;16.260;2022-10-26T11:49:39;20.93;;;16.17;;
48205;SDS011;33995;48.202;16.260;2022-10-26T11:52:47;19.03;;;14.63;;
48205;SDS011;33995;48.202;16.260;2022-10-26T11:55:23;17.67;;;14.70;;
48205;SDS011;33995;48.202;16.260;2022-10-26T11:57:51;20.17;;;14.60;;
48205;SDS011;33995;48.202;16.260;2022-10-26T12:00:20;18.73;;;14.03;;
48205;SDS011;33995;48.202;16.260;2022-10-26T12:02:49;17.43;;;13.77;;
48205;SDS011;33995;48.202;16.260;2022-10-26T12:05:31;17.67;;;13.00;;
48205;SDS011;33995;48.202;16.260;2022-10-26T12:08:13;15.63;;;12.63;;
48205;SDS011;33995;48.202;16.260;2022-10-26T12:10:57;16.47;;;12.00;;
48205;SDS011;33995;48.202;16.260;2022-10-26T12:22:07;16.90;;;12.20;;
48205;SDS011;33995;48.202;16.260;2022-10-26T12:24:42;13.90;;;11.50;;
48205;SDS011;33995;48.202;16.260;2022-10-26T12:32:51;12.50;;;10.60;;
48205;SDS011;33995;48.202;16.260;2022-10-26T12:38:00;12.33;;;10.60;;
48205;SDS011;33995;48.202;16.260;2022-10-26T12:40:47;11.63;;;10.37;;
48205;SDS011;33995;48.202;16.260;2022-10-26T12:43:33;12.33;;;10.20;;
48205;SDS011;33995;48.202;16.260;2022-10-26T12:48:46;12.60;;;9.63;;
48205;SDS011;33995;48.202;16.260;2022-10-26T12:53:50;27.87;;;22.13;;
48205;SDS011;33995;48.202;16.260;2022-10-26T12:56:26;30.30;;;23.60;;
48205;SDS011;33995;48.202;16.260;2022-10-26T13:01:49;32.97;;;25.23;;
48205;SDS011;33995;48.202;16.260;2022-10-26T13:07:34;32.90;;;24.53;;
48205;SDS011;33995;48.202;16.260;2022-10-26T13:12:44;38.27;;;28.20;;
48205;SDS011;33995;48.202;16.260;2022-10-26T13:15:28;39.00;;;28.47;;
48205;SDS011;33995;48.202;16.260;2022-10-26T13:17:58;34.27;;;26.53;;
48205;SDS011;33995;48.202;16.260;2022-10-26T13:20:30;34.47;;;27.27;;
48205;SDS011;33995;48.202;16.260;2022-10-26T13:23:00;34.47;;;26.70;;
48205;SDS011;33995;48.202;16.260;2022-10-26T13:25:33;33.37;;;26.80;;
48205;SDS011;33995;48.202;16.260;2022-10-26T13:30:41;32.60;;;25.93;;
48205;SDS011;33995;48.202;16.260;2022-10-26T13:33:13;33.77;;;26.07;;
48205;SDS011;33995;48.202;16.260;2022-10-26T13:35:46;36.77;;;27.27;;
48205;SDS011;33995;48.202;16.260;2022-10-26T13:38:17;34.87;;;25.97;;
48205;SDS011;33995;48.202;16.260;2022-10-26T13:40:48;33.63;;;25.50;;
48205;SDS011;33995;48.202;16.260;2022-10-26T13:43:20;33.23;;;25.40;;
48205;SDS011;33995;48.202;16.260;2022-10-26T13:45:53;33.27;;;24.80;;
48205;SDS011;33995;48.202;16.260;2022-10-26T13:48:39;34.77;;;25.03;;
48205;SDS011;33995;48.202;16.260;2022-10-26T13:51:20;33.57;;;25.60;;
48205;SDS011;33995;48.202;16.260;2022-10-26T13:53:58;34.30;;;25.50;;
48205;SDS011;33995;48.202;16.260;2022-10-26T13:56:47;34.57;;;25.43;;
48205;SDS011;33995;48.202;16.260;2022-10-26T13:59:19;33.53;;;25.77;;
48205;SDS011;33995;48.202;16.260;2022-10-26T14:02:04;32.67;;;25.07;;
48205;SDS011;33995;48.202;16.260;2022-10-26T14:04:58;34.83;;;25.27;;
48205;SDS011;33995;48.202;16.260;2022-10-26T14:07:39;33.90;;;25.80;;
48205;SDS011;33995;48.202;16.260;2022-10-26T14:12:49;35.97;;;26.30;;
48205;SDS011;33995;48.202;16.260;2022-10-26T14:15:18;34.57;;;25.90;;
48205;SDS011;33995;48.202;16.260;2022-10-26T14:17:51;37.80;;;26.77;;
48205;SDS011;33995;48.202;16.260;2022-10-26T14:20:21;33.23;;;26.00;;
48205;SDS011;33995;48.202;16.260;2022-10-26T14:22:51;35.87;;;27.70;;
48205;SDS011;33995;48.202;16.260;2022-10-26T14:25:23;35.83;;;27.07;;
48205;SDS011;33995;48.202;16.260;2022-10-26T14:28:22;36.20;;;28.20;;
48205;SDS011;33995;48.202;16.260;2022-10-26T14:30:51;38.83;;;29.00;;
48205;SDS011;33995;48.202;16.260;2022-10-26T14:33:19;35.67;;;28.27;;
48205;SDS011;33995;48.202;16.260;2022-10-26T14:35:53;36.83;;;28.33;;
48205;SDS011;33995;48.202;16.260;2022-10-26T14:38:23;36.53;;;28.43;;
48205;SDS011;33995;48.202;16.260;2022-10-26T14:40:54;37.10;;;29.10;;
48205;SDS011;33995;48.202;16.260;2022-10-26T14:43:23;36.53;;;28.77;;
48205;SDS011;33995;48.202;16.260;2022-10-26T14:45:52;35.43;;;28.70;;
48205;SDS011;33995;48.202;16.260;2022-10-26T14:48:22;39.20;;;29.47;;
48205;SDS011;33995;48.202;16.260;2022-10-26T14:53:37;37.60;;;29.53;;
48205;SDS011;33995;48.202;16.260;2022-10-26T14:56:20;36.80;;;29.70;;
48205;SDS011;33995;48.202;16.260;2022-10-26T14:58:48;37.90;;;30.50;;
48205;SDS011;33995;48.202;16.260;2022-10-26T15:01:30;37.73;;;31.13;;
48205;SDS011;33995;48.202;16.260;2022-10-26T15:04:05;35.50;;;30.40;;
48205;SDS011;33995;48.202;16.260;2022-10-26T15:06:38;38.50;;;30.57;;
48205;SDS011;33995;48.202;16.260;2022-10-26T15:09:27;39.03;;;32.23;;
48205;SDS011;33995;48.202;16.260;2022-10-26T15:11:57;36.33;;;29.90;;
48205;SDS011;33995;48.202;16.260;2022-10-26T15:14:25;37.77;;;30.90;;
48205;SDS011;33995;48.202;16.260;2022-10-26T15:16:54;37.97;;;29.57;;
48205;SDS011;33995;48.202;16.260;2022-10-26T15:19:23;37.53;;;31.23;;
48205;SDS011;33995;48.202;16.260;2022-10-26T15:21:53;36.03;;;30.90;;
48205;SDS011;33995;48.202;16.260;2022-10-26T15:27:01;40.57;;;31.30;;
48205;SDS011;33995;48.202;16.260;2022-10-26T15:32:18;36.03;;;31.07;;
48205;SDS011;33995;48.202;16.260;2022-10-26T15:37:46;38.37;;;31.57;;
48205;SDS011;33995;48.202;16.260;2022-10-26T15:40:15;39.70;;;32.47;;
48205;SDS011;33995;48.202;16.260;2022-10-26T15:42:54;35.00;;;30.20;;
48205;SDS011;33995;48.202;16.260;2022-10-26T15:45:29;38.33;;;32.60;;
48205;SDS011;33995;48.202;16.260;2022-10-26T15:48:04;39.17;;;31.73;;
48205;SDS011;33995;48.202;16.260;2022-10-26T15:50:55;37.30;;;32.47;;
48205;SDS011;33995;48.202;16.260;2022-10-26T15:53:23;38.47;;;31.53;;
48205;SDS011;33995;48.202;16.260;2022-10-26T15:55:56;38.83;;;31.63;;
48205;SDS011;33995;48.202;16.260;2022-10-26T15:58:26;39.43;;;32.27;;
48205;SDS011;33995;48.202;16.260;2022-10-26T16:00:55;37.23;;;30.50;;
48205;SDS011;33995;48.202;16.260;2022-10-26T16:03:23;42.23;;;32.77;;
48205;SDS011;33995;48.202;16.260;2022-10-26T16:05:54;40.63;;;33.03;;
48205;SDS011;33995;48.202;16.260;2022-10-26T16:08:24;38.87;;;32.43;;
48205;SDS011;33995;48.202;16.260;2022-10-26T16:10:55;40.73;;;33.53;;
48205;SDS011;33995;48.202;16.260;2022-10-26T16:13:23;39.00;;;32.70;;
48205;SDS011;33995;48.202;16.260;2022-10-26T16:15:52;41.97;;;34.23;;
48205;SDS011;33995;48.202;16.260;2022-10-26T16:18:20;41.03;;;32.97;;
48205;SDS011;33995;48.202;16.260;2022-10-26T16:20:47;39.13;;;33.17;;
48205;SDS011;33995;48.202;16.260;2022-10-26T16:23:15;42.30;;;34.60;;
48205;SDS011;33995;48.202;16.260;2022-10-26T16:25:43;40.90;;;34.07;;
48205;SDS011;33995;48.202;16.260;2022-10-26T16:28:13;40.47;;;33.57;;
48205;SDS011;33995;48.202;16.260;2022-10-26T16:30:42;41.87;;;33.90;;
48205;SDS011;33995;48.202;16.260;2022-10-26T16:33:10;40.80;;;33.87;;
48205;SDS011;33995;48.202;16.260;2022-10-26T16:35:38;40.10;;;32.63;;
48205;SDS011;33995;48.202;16.260;2022-10-26T16:38:06;40.50;;;33.37;;
48205;SDS011;33995;48.202;16.260;2022-10-26T16:40:33;38.47;;;31.83;;
48205;SDS011;33995;48.202;16.260;2022-10-26T16:43:01;42.30;;;34.43;;
48205;SDS011;33995;48.202;16.260;2022-10-26T16:45:28;38.30;;;32.10;;
48205;SDS011;33995;48.202;16.260;2022-10-26T16:47:57;39.93;;;32.63;;
48205;SDS011;33995;48.202;16.260;2022-10-26T16:50:24;38.50;;;32.57;;
48205;SDS011;33995;48.202;16.260;2022-10-26T16:52:52;40.53;;;32.97;;
48205;SDS011;33995;48.202;16.260;2022-10-26T16:55:20;42.30;;;33.83;;
48205;SDS011;33995;48.202;16.260;2022-10-26T16:57:50;38.77;;;31.57;;
48205;SDS011;33995;48.202;16.260;2022-10-26T17:00:18;40.43;;;32.73;;
48205;SDS011;33995;48.202;16.260;2022-10-26T17:02:46;38.87;;;32.80;;
48205;SDS011;33995;48.202;16.260;2022-10-26T17:05:14;38.87;;;32.77;;
48205;SDS011;33995;48.202;16.260;2022-10-26T17:07:41;38.50;;;32.20;;